Ellisburg, Pennsylvania
Current Conditions -  °F | °C
As of 2:22 PM on Friday 31 Oct 2014 (Local Time) from KELZ Reporting Station
Light Rain Light Rain  
Wind Chill: 38°   Ceiling: 4000
Heat Index: 42°   Visibility: 10mi
Dew Point: 34°   Wind: 6mph
Humidity: 73%   Direction: 190°S
Pressure: 29.89"   Gusts: NA
Location:  41.915°N, 77.8855°W
Report Text: KELZ 311822Z AUTO 19005KT 10SM -RA SCT020 BKN040 OVC048 06/01 A2989 RMK AO2 P0000 T00560011
Loading
Personal Weather Stations






























Interactive Weather Map New forecast layout! Learn more

10-Day Weather Forecast

Advertisements
Track Severe Weather on mobile